sensor_id;sensor_type;location;lat;lon;timestamp;P1;durP1;ratioP1;P2;durP2;ratioP2
50858;SDS011;36826;47.514;19.056;2023-05-24T00:00:08;3.45;;;2.70;;
50858;SDS011;36826;47.514;19.056;2023-05-24T00:02:36;3.65;;;2.70;;
50858;SDS011;36826;47.514;19.056;2023-05-24T00:05:07;3.75;;;2.53;;
50858;SDS011;36826;47.514;19.056;2023-05-24T00:07:33;5.13;;;2.83;;
50858;SDS011;36826;47.514;19.056;2023-05-24T00:10:00;4.18;;;2.63;;
50858;SDS011;36826;47.514;19.056;2023-05-24T00:12:26;3.00;;;2.67;;
50858;SDS011;36826;47.514;19.056;2023-05-24T00:14:51;6.75;;;2.58;;
50858;SDS011;36826;47.514;19.056;2023-05-24T00:17:17;4.30;;;2.67;;
50858;SDS011;36826;47.514;19.056;2023-05-24T00:19:42;3.63;;;2.55;;
50858;SDS011;36826;47.514;19.056;2023-05-24T00:22:07;3.45;;;2.45;;
50858;SDS011;36826;47.514;19.056;2023-05-24T00:24:33;4.32;;;2.55;;
50858;SDS011;36826;47.514;19.056;2023-05-24T00:26:58;2.65;;;2.22;;
50858;SDS011;36826;47.514;19.056;2023-05-24T00:29:25;3.85;;;2.55;;
50858;SDS011;36826;47.514;19.056;2023-05-24T00:31:50;5.45;;;2.85;;
50858;SDS011;36826;47.514;19.056;2023-05-24T00:34:15;3.88;;;2.38;;
50858;SDS011;36826;47.514;19.056;2023-05-24T00:36:41;3.58;;;2.28;;
50858;SDS011;36826;47.514;19.056;2023-05-24T00:39:06;2.50;;;2.17;;
50858;SDS011;36826;47.514;19.056;2023-05-24T00:41:32;2.70;;;2.50;;
50858;SDS011;36826;47.514;19.056;2023-05-24T00:43:57;3.67;;;2.60;;
50858;SDS011;36826;47.514;19.056;2023-05-24T00:46:27;3.08;;;2.47;;
50858;SDS011;36826;47.514;19.056;2023-05-24T00:48:54;3.72;;;2.20;;
50858;SDS011;36826;47.514;19.056;2023-05-24T00:51:20;3.88;;;2.35;;
50858;SDS011;36826;47.514;19.056;2023-05-24T00:53:47;4.53;;;2.70;;
50858;SDS011;36826;47.514;19.056;2023-05-24T00:56:13;3.05;;;2.10;;
50858;SDS011;36826;47.514;19.056;2023-05-24T00:58:40;3.50;;;2.45;;
50858;SDS011;36826;47.514;19.056;2023-05-24T01:01:05;3.30;;;2.38;;
50858;SDS011;36826;47.514;19.056;2023-05-24T01:03:32;3.47;;;2.10;;
50858;SDS011;36826;47.514;19.056;2023-05-24T01:05:58;4.05;;;2.40;;
50858;SDS011;36826;47.514;19.056;2023-05-24T01:24:43;3.85;;;2.70;;
50858;SDS011;36826;47.514;19.056;2023-05-24T01:30:02;3.55;;;2.38;;
50858;SDS011;36826;47.514;19.056;2023-05-24T01:32:28;2.80;;;2.50;;
50858;SDS011;36826;47.514;19.056;2023-05-24T01:34:54;4.93;;;2.60;;
50858;SDS011;36826;47.514;19.056;2023-05-24T01:37:20;2.85;;;2.50;;
50858;SDS011;36826;47.514;19.056;2023-05-24T01:39:46;2.88;;;2.15;;
50858;SDS011;36826;47.514;19.056;2023-05-24T01:42:25;7.00;;;2.45;;
50858;SDS011;36826;47.514;19.056;2023-05-24T01:44:58;3.85;;;2.50;;
50858;SDS011;36826;47.514;19.056;2023-05-24T01:52:48;3.20;;;2.40;;
50858;SDS011;36826;47.514;19.056;2023-05-24T01:55:16;3.58;;;2.75;;
50858;SDS011;36826;47.514;19.056;2023-05-24T01:57:43;3.45;;;2.80;;
50858;SDS011;36826;47.514;19.056;2023-05-24T02:00:12;5.20;;;2.97;;
50858;SDS011;36826;47.514;19.056;2023-05-24T02:02:40;3.90;;;3.10;;
50858;SDS011;36826;47.514;19.056;2023-05-24T02:05:05;4.50;;;3.28;;
50858;SDS011;36826;47.514;19.056;2023-05-24T02:07:31;5.45;;;3.22;;
50858;SDS011;36826;47.514;19.056;2023-05-24T02:09:57;6.40;;;3.30;;
50858;SDS011;36826;47.514;19.056;2023-05-24T02:12:22;4.50;;;3.25;;
50858;SDS011;36826;47.514;19.056;2023-05-24T02:14:47;4.43;;;3.42;;
50858;SDS011;36826;47.514;19.056;2023-05-24T02:17:15;4.90;;;3.80;;
50858;SDS011;36826;47.514;19.056;2023-05-24T02:19:41;5.85;;;3.63;;
50858;SDS011;36826;47.514;19.056;2023-05-24T02:22:07;5.75;;;4.03;;
50858;SDS011;36826;47.514;19.056;2023-05-24T02:24:33;5.47;;;4.15;;
50858;SDS011;36826;47.514;19.056;2023-05-24T02:26:58;4.80;;;3.67;;
50858;SDS011;36826;47.514;19.056;2023-05-24T02:29:24;4.40;;;3.85;;
50858;SDS011;36826;47.514;19.056;2023-05-24T02:31:49;6.65;;;4.30;;
50858;SDS011;36826;47.514;19.056;2023-05-24T02:34:20;8.40;;;4.40;;
50858;SDS011;36826;47.514;19.056;2023-05-24T02:36:47;6.20;;;4.40;;
50858;SDS011;36826;47.514;19.056;2023-05-24T02:39:13;5.68;;;4.25;;
50858;SDS011;36826;47.514;19.056;2023-05-24T02:41:38;7.90;;;4.57;;
50858;SDS011;36826;47.514;19.056;2023-05-24T02:44:05;6.45;;;4.60;;
50858;SDS011;36826;47.514;19.056;2023-05-24T02:46:31;6.00;;;4.32;;
50858;SDS011;36826;47.514;19.056;2023-05-24T02:48:57;5.22;;;4.32;;
50858;SDS011;36826;47.514;19.056;2023-05-24T02:51:22;6.57;;;4.35;;
50858;SDS011;36826;47.514;19.056;2023-05-24T02:53:48;6.45;;;4.30;;
50858;SDS011;36826;47.514;19.056;2023-05-24T02:56:13;5.60;;;5.00;;
50858;SDS011;36826;47.514;19.056;2023-05-24T02:58:44;5.53;;;4.93;;
50858;SDS011;36826;47.514;19.056;2023-05-24T03:01:10;5.90;;;4.75;;
50858;SDS011;36826;47.514;19.056;2023-05-24T03:03:39;5.57;;;5.03;;
50858;SDS011;36826;47.514;19.056;2023-05-24T03:06:05;5.22;;;4.72;;
50858;SDS011;36826;47.514;19.056;2023-05-24T03:08:34;7.15;;;5.80;;
50858;SDS011;36826;47.514;19.056;2023-05-24T03:11:01;7.50;;;5.20;;
50858;SDS011;36826;47.514;19.056;2023-05-24T03:13:27;6.90;;;5.03;;
50858;SDS011;36826;47.514;19.056;2023-05-24T03:15:53;5.53;;;5.03;;
50858;SDS011;36826;47.514;19.056;2023-05-24T03:18:18;6.30;;;5.05;;
50858;SDS011;36826;47.514;19.056;2023-05-24T03:20:44;8.95;;;5.53;;
50858;SDS011;36826;47.514;19.056;2023-05-24T03:23:09;6.90;;;5.80;;
50858;SDS011;36826;47.514;19.056;2023-05-24T03:25:35;7.72;;;5.63;;
50858;SDS011;36826;47.514;19.056;2023-05-24T03:28:01;7.95;;;5.75;;
50858;SDS011;36826;47.514;19.056;2023-05-24T03:30:27;8.23;;;5.70;;
50858;SDS011;36826;47.514;19.056;2023-05-24T03:32:52;8.55;;;6.20;;
50858;SDS011;36826;47.514;19.056;2023-05-24T03:35:18;7.18;;;5.93;;
50858;SDS011;36826;47.514;19.056;2023-05-24T03:37:44;7.35;;;6.03;;
50858;SDS011;36826;47.514;19.056;2023-05-24T03:40:10;7.78;;;6.15;;
50858;SDS011;36826;47.514;19.056;2023-05-24T03:42:36;7.72;;;6.47;;
50858;SDS011;36826;47.514;19.056;2023-05-24T03:45:01;8.75;;;6.65;;
50858;SDS011;36826;47.514;19.056;2023-05-24T03:47:27;7.32;;;6.55;;
50858;SDS011;36826;47.514;19.056;2023-05-24T03:49:52;9.50;;;6.45;;
50858;SDS011;36826;47.514;19.056;2023-05-24T03:52:17;9.05;;;7.03;;
50858;SDS011;36826;47.514;19.056;2023-05-24T03:54:43;8.88;;;7.10;;
50858;SDS011;36826;47.514;19.056;2023-05-24T03:57:10;9.70;;;7.03;;
50858;SDS011;36826;47.514;19.056;2023-05-24T03:59:35;10.57;;;7.65;;
50858;SDS011;36826;47.514;19.056;2023-05-24T04:02:00;9.73;;;7.57;;
50858;SDS011;36826;47.514;19.056;2023-05-24T04:04:26;11.30;;;8.02;;
50858;SDS011;36826;47.514;19.056;2023-05-24T04:06:51;10.57;;;7.80;;
50858;SDS011;36826;47.514;19.056;2023-05-24T04:09:18;10.48;;;7.80;;
50858;SDS011;36826;47.514;19.056;2023-05-24T04:11:43;10.23;;;7.93;;
50858;SDS011;36826;47.514;19.056;2023-05-24T04:14:09;9.73;;;7.93;;
50858;SDS011;36826;47.514;19.056;2023-05-24T04:16:34;9.57;;;8.00;;
50858;SDS011;36826;47.514;19.056;2023-05-24T04:19:00;9.77;;;8.20;;
50858;SDS011;36826;47.514;19.056;2023-05-24T04:21:27;9.00;;;7.90;;
50858;SDS011;36826;47.514;19.056;2023-05-24T04:23:53;11.38;;;8.70;;
50858;SDS011;36826;47.514;19.056;2023-05-24T04:26:20;10.18;;;9.07;;
50858;SDS011;36826;47.514;19.056;2023-05-24T04:28:46;11.93;;;9.35;;
50858;SDS011;36826;47.514;19.056;2023-05-24T04:31:12;12.82;;;10.25;;
50858;SDS011;36826;47.514;19.056;2023-05-24T04:33:39;12.82;;;9.70;;
50858;SDS011;36826;47.514;19.056;2023-05-24T04:36:05;12.30;;;10.25;;
50858;SDS011;36826;47.514;19.056;2023-05-24T04:38:32;11.98;;;10.68;;
50858;SDS011;36826;47.514;19.056;2023-05-24T04:41:00;12.77;;;10.75;;
50858;SDS011;36826;47.514;19.056;2023-05-24T04:43:26;12.80;;;10.48;;
50858;SDS011;36826;47.514;19.056;2023-05-24T04:45:53;13.70;;;9.93;;
50858;SDS011;36826;47.514;19.056;2023-05-24T04:48:19;11.25;;;10.07;;
50858;SDS011;36826;47.514;19.056;2023-05-24T04:50:47;14.88;;;9.85;;
50858;SDS011;36826;47.514;19.056;2023-05-24T04:53:14;11.52;;;9.90;;
50858;SDS011;36826;47.514;19.056;2023-05-24T04:55:41;12.60;;;10.60;;
50858;SDS011;36826;47.514;19.056;2023-05-24T04:58:06;11.45;;;9.90;;
50858;SDS011;36826;47.514;19.056;2023-05-24T05:00:32;14.10;;;10.35;;
50858;SDS011;36826;47.514;19.056;2023-05-24T05:02:57;13.00;;;9.98;;
50858;SDS011;36826;47.514;19.056;2023-05-24T05:05:23;14.27;;;10.77;;
50858;SDS011;36826;47.514;19.056;2023-05-24T05:07:48;12.40;;;11.20;;
50858;SDS011;36826;47.514;19.056;2023-05-24T05:10:14;13.55;;;11.52;;
50858;SDS011;36826;47.514;19.056;2023-05-24T05:12:40;13.85;;;11.70;;
50858;SDS011;36826;47.514;19.056;2023-05-24T05:15:06;12.40;;;11.10;;
50858;SDS011;36826;47.514;19.056;2023-05-24T05:17:32;11.70;;;10.50;;
50858;SDS011;36826;47.514;19.056;2023-05-24T05:19:58;12.00;;;10.60;;
50858;SDS011;36826;47.514;19.056;2023-05-24T05:22:24;10.40;;;9.30;;
50858;SDS011;36826;47.514;19.056;2023-05-24T05:24:50;12.43;;;9.50;;
50858;SDS011;36826;47.514;19.056;2023-05-24T05:27:16;11.32;;;9.27;;
50858;SDS011;36826;47.514;19.056;2023-05-24T05:29:41;10.43;;;9.40;;
50858;SDS011;36826;47.514;19.056;2023-05-24T05:32:07;10.13;;;9.20;;
50858;SDS011;36826;47.514;19.056;2023-05-24T05:34:32;11.38;;;8.82;;
50858;SDS011;36826;47.514;19.056;2023-05-24T05:36:58;9.55;;;8.20;;
50858;SDS011;36826;47.514;19.056;2023-05-24T05:39:23;9.32;;;7.70;;
50858;SDS011;36826;47.514;19.056;2023-05-24T05:41:49;8.77;;;7.68;;
50858;SDS011;36826;47.514;19.056;2023-05-24T05:44:20;8.60;;;6.60;;
50858;SDS011;36826;47.514;19.056;2023-05-24T05:46:45;7.72;;;6.60;;
50858;SDS011;36826;47.514;19.056;2023-05-24T05:49:11;7.40;;;6.35;;
50858;SDS011;36826;47.514;19.056;2023-05-24T05:51:39;7.43;;;6.20;;
50858;SDS011;36826;47.514;19.056;2023-05-24T05:54:04;6.97;;;5.97;;
50858;SDS011;36826;47.514;19.056;2023-05-24T05:56:30;6.22;;;5.63;;
50858;SDS011;36826;47.514;19.056;2023-05-24T05:58:56;5.85;;;5.25;;
50858;SDS011;36826;47.514;19.056;2023-05-24T06:01:21;5.88;;;4.95;;
50858;SDS011;36826;47.514;19.056;2023-05-24T06:03:47;5.43;;;4.90;;
50858;SDS011;36826;47.514;19.056;2023-05-24T06:06:12;5.68;;;5.03;;
50858;SDS011;36826;47.514;19.056;2023-05-24T06:08:38;5.68;;;5.18;;
50858;SDS011;36826;47.514;19.056;2023-05-24T06:11:04;5.47;;;4.75;;
50858;SDS011;36826;47.514;19.056;2023-05-24T06:13:30;6.22;;;4.93;;
50858;SDS011;36826;47.514;19.056;2023-05-24T06:15:57;5.90;;;4.90;;
50858;SDS011;36826;47.514;19.056;2023-05-24T06:18:23;6.20;;;4.70;;
50858;SDS011;36826;47.514;19.056;2023-05-24T06:20:49;6.07;;;4.93;;
50858;SDS011;36826;47.514;19.056;2023-05-24T06:23:15;7.10;;;5.70;;
50858;SDS011;36826;47.514;19.056;2023-05-24T06:25:40;7.07;;;5.18;;
50858;SDS011;36826;47.514;19.056;2023-05-24T06:28:07;6.75;;;5.70;;
50858;SDS011;36826;47.514;19.056;2023-05-24T06:30:33;8.05;;;5.90;;
50858;SDS011;36826;47.514;19.056;2023-05-24T06:32:59;7.50;;;5.40;;
50858;SDS011;36826;47.514;19.056;2023-05-24T06:35:25;7.15;;;5.20;;
50858;SDS011;36826;47.514;19.056;2023-05-24T06:37:51;7.45;;;5.43;;
50858;SDS011;36826;47.514;19.056;2023-05-24T06:40:16;6.53;;;5.78;;
50858;SDS011;36826;47.514;19.056;2023-05-24T06:42:42;6.22;;;5.10;;
50858;SDS011;36826;47.514;19.056;2023-05-24T06:45:07;6.30;;;4.85;;
50858;SDS011;36826;47.514;19.056;2023-05-24T06:47:33;5.75;;;5.07;;
50858;SDS011;36826;47.514;19.056;2023-05-24T06:49:59;5.80;;;5.20;;
50858;SDS011;36826;47.514;19.056;2023-05-24T06:52:26;5.27;;;4.77;;
50858;SDS011;36826;47.514;19.056;2023-05-24T06:54:51;6.05;;;5.32;;
50858;SDS011;36826;47.514;19.056;2023-05-24T06:57:17;5.57;;;5.07;;
50858;SDS011;36826;47.514;19.056;2023-05-24T06:59:42;5.60;;;4.93;;
50858;SDS011;36826;47.514;19.056;2023-05-24T07:02:07;5.63;;;5.13;;
50858;SDS011;36826;47.514;19.056;2023-05-24T07:04:33;5.32;;;4.63;;
50858;SDS011;36826;47.514;19.056;2023-05-24T07:06:58;5.47;;;4.55;;
50858;SDS011;36826;47.514;19.056;2023-05-24T07:09:24;5.53;;;4.35;;
50858;SDS011;36826;47.514;19.056;2023-05-24T07:11:49;7.18;;;4.63;;
50858;SDS011;36826;47.514;19.056;2023-05-24T07:14:15;4.82;;;4.30;;
50858;SDS011;36826;47.514;19.056;2023-05-24T07:16:40;7.30;;;4.30;;
50858;SDS011;36826;47.514;19.056;2023-05-24T07:19:06;7.05;;;4.70;;
50858;SDS011;36826;47.514;19.056;2023-05-24T07:21:31;5.27;;;4.73;;
50858;SDS011;36826;47.514;19.056;2023-05-24T07:23:57;4.80;;;4.30;;
50858;SDS011;36826;47.514;19.056;2023-05-24T07:26:22;5.87;;;3.97;;
50858;SDS011;36826;47.514;19.056;2023-05-24T07:28:48;4.37;;;4.00;;
50858;SDS011;36826;47.514;19.056;2023-05-24T07:31:14;7.00;;;4.30;;
50858;SDS011;36826;47.514;19.056;2023-05-24T07:33:40;4.78;;;4.32;;
50858;SDS011;36826;47.514;19.056;2023-05-24T07:36:05;5.37;;;4.07;;
50858;SDS011;36826;47.514;19.056;2023-05-24T07:38:31;5.03;;;4.40;;
50858;SDS011;36826;47.514;19.056;2023-05-24T07:40:59;6.55;;;4.68;;
50858;SDS011;36826;47.514;19.056;2023-05-24T07:43:25;4.32;;;4.03;;
50858;SDS011;36826;47.514;19.056;2023-05-24T07:45:51;4.38;;;4.07;;
50858;SDS011;36826;47.514;19.056;2023-05-24T07:48:18;5.63;;;4.75;;
50858;SDS011;36826;47.514;19.056;2023-05-24T07:50:44;4.93;;;4.18;;
50858;SDS011;36826;47.514;19.056;2023-05-24T07:53:12;4.97;;;4.47;;
50858;SDS011;36826;47.514;19.056;2023-05-24T07:55:39;4.93;;;4.43;;
50858;SDS011;36826;47.514;19.056;2023-05-24T07:58:04;5.53;;;4.90;;
50858;SDS011;36826;47.514;19.056;2023-05-24T08:00:30;5.60;;;4.93;;
50858;SDS011;36826;47.514;19.056;2023-05-24T08:05:22;6.20;;;4.80;;
50858;SDS011;36826;47.514;19.056;2023-05-24T08:07:48;6.43;;;4.83;;
50858;SDS011;36826;47.514;19.056;2023-05-24T08:10:13;5.53;;;4.67;;
50858;SDS011;36826;47.514;19.056;2023-05-24T08:12:41;4.70;;;4.17;;
50858;SDS011;36826;47.514;19.056;2023-05-24T08:15:07;5.55;;;5.05;;
50858;SDS011;36826;47.514;19.056;2023-05-24T08:17:33;5.80;;;5.13;;
50858;SDS011;36826;47.514;19.056;2023-05-24T08:19:58;5.47;;;4.97;;
50858;SDS011;36826;47.514;19.056;2023-05-24T08:22:24;5.03;;;4.63;;
50858;SDS011;36826;47.514;19.056;2023-05-24T08:24:50;6.47;;;5.20;;
50858;SDS011;36826;47.514;19.056;2023-05-24T08:27:16;6.75;;;5.20;;
50858;SDS011;36826;47.514;19.056;2023-05-24T08:29:41;6.93;;;5.47;;
50858;SDS011;36826;47.514;19.056;2023-05-24T08:32:07;6.10;;;4.90;;
50858;SDS011;36826;47.514;19.056;2023-05-24T08:34:35;5.32;;;4.65;;
50858;SDS011;36826;47.514;19.056;2023-05-24T08:37:01;4.85;;;4.43;;
50858;SDS011;36826;47.514;19.056;2023-05-24T08:39:28;6.47;;;4.70;;
50858;SDS011;36826;47.514;19.056;2023-05-24T08:41:53;5.37;;;4.80;;
50858;SDS011;36826;47.514;19.056;2023-05-24T08:44:20;4.80;;;4.40;;
50858;SDS011;36826;47.514;19.056;2023-05-24T08:46:47;5.55;;;4.30;;
50858;SDS011;36826;47.514;19.056;2023-05-24T08:49:13;6.10;;;4.53;;
50858;SDS011;36826;47.514;19.056;2023-05-24T08:51:40;6.63;;;4.60;;
50858;SDS011;36826;47.514;19.056;2023-05-24T08:56:34;4.38;;;3.92;;
50858;SDS011;36826;47.514;19.056;2023-05-24T08:59:00;4.25;;;3.85;;
50858;SDS011;36826;47.514;19.056;2023-05-24T09:01:26;3.83;;;3.40;;
50858;SDS011;36826;47.514;19.056;2023-05-24T09:03:54;3.42;;;3.13;;
50858;SDS011;36826;47.514;19.056;2023-05-24T09:06:20;3.60;;;3.30;;
50858;SDS011;36826;47.514;19.056;2023-05-24T09:08:46;4.43;;;3.58;;
50858;SDS011;36826;47.514;19.056;2023-05-24T09:11:17;5.95;;;3.42;;
50858;SDS011;36826;47.514;19.056;2023-05-24T09:13:45;4.47;;;2.92;;
50858;SDS011;36826;47.514;19.056;2023-05-24T09:16:12;14.30;;;11.15;;
50858;SDS011;36826;47.514;19.056;2023-05-24T09:18:39;5.82;;;4.18;;
50858;SDS011;36826;47.514;19.056;2023-05-24T09:21:06;19.92;;;12.90;;
50858;SDS011;36826;47.514;19.056;2023-05-24T09:23:34;7.20;;;5.15;;
50858;SDS011;36826;47.514;19.056;2023-05-24T09:26:05;4.28;;;3.22;;
50858;SDS011;36826;47.514;19.056;2023-05-24T09:28:31;4.30;;;3.17;;
50858;SDS011;36826;47.514;19.056;2023-05-24T09:30:59;3.58;;;3.00;;
50858;SDS011;36826;47.514;19.056;2023-05-24T09:33:30;3.95;;;2.88;;
50858;SDS011;36826;47.514;19.056;2023-05-24T09:35:57;3.58;;;3.08;;
50858;SDS011;36826;47.514;19.056;2023-05-24T09:38:24;3.22;;;2.90;;
50858;SDS011;36826;47.514;19.056;2023-05-24T09:40:57;3.10;;;2.58;;
50858;SDS011;36826;47.514;19.056;2023-05-24T09:43:26;2.95;;;2.65;;
50858;SDS011;36826;47.514;19.056;2023-05-24T09:45:54;2.90;;;2.60;;
50858;SDS011;36826;47.514;19.056;2023-05-24T09:48:22;3.00;;;2.75;;
50858;SDS011;36826;47.514;19.056;2023-05-24T09:51:04;2.80;;;2.60;;
50858;SDS011;36826;47.514;19.056;2023-05-24T09:53:31;3.58;;;2.47;;
50858;SDS011;36826;47.514;19.056;2023-05-24T09:56:02;3.75;;;2.40;;
50858;SDS011;36826;47.514;19.056;2023-05-24T09:58:29;2.92;;;2.30;;
50858;SDS011;36826;47.514;19.056;2023-05-24T10:01:09;3.10;;;2.65;;
50858;SDS011;36826;47.514;19.056;2023-05-24T10:03:36;4.65;;;2.63;;
50858;SDS011;36826;47.514;19.056;2023-05-24T10:06:02;3.65;;;2.80;;
50858;SDS011;36826;47.514;19.056;2023-05-24T10:08:32;2.95;;;2.70;;
50858;SDS011;36826;47.514;19.056;2023-05-24T10:10:59;3.03;;;2.72;;
50858;SDS011;36826;47.514;19.056;2023-05-24T10:13:27;3.05;;;2.60;;
50858;SDS011;36826;47.514;19.056;2023-05-24T10:15:53;2.88;;;2.55;;
50858;SDS011;36826;47.514;19.056;2023-05-24T10:18:20;2.73;;;2.43;;
50858;SDS011;36826;47.514;19.056;2023-05-24T10:20:45;2.80;;;2.60;;
50858;SDS011;36826;47.514;19.056;2023-05-24T10:25:44;3.67;;;2.80;;
50858;SDS011;36826;47.514;19.056;2023-05-24T10:28:15;5.07;;;3.05;;
50858;SDS011;36826;47.514;19.056;2023-05-24T10:30:53;3.28;;;2.83;;
50858;SDS011;36826;47.514;19.056;2023-05-24T10:33:23;3.95;;;2.75;;
50858;SDS011;36826;47.514;19.056;2023-05-24T10:35:49;4.05;;;3.00;;
50858;SDS011;36826;47.514;19.056;2023-05-24T10:38:21;4.13;;;3.00;;
50858;SDS011;36826;47.514;19.056;2023-05-24T10:40:48;3.67;;;3.00;;
50858;SDS011;36826;47.514;19.056;2023-05-24T10:43:13;3.17;;;2.85;;
50858;SDS011;36826;47.514;19.056;2023-05-24T10:45:41;3.33;;;2.90;;
50858;SDS011;36826;47.514;19.056;2023-05-24T10:50:37;5.10;;;3.30;;
50858;SDS011;36826;47.514;19.056;2023-05-24T10:53:13;4.53;;;3.30;;
50858;SDS011;36826;47.514;19.056;2023-05-24T10:58:26;5.40;;;3.33;;
50858;SDS011;36826;47.514;19.056;2023-05-24T11:00:54;6.57;;;3.63;;
50858;SDS011;36826;47.514;19.056;2023-05-24T11:03:20;3.83;;;3.00;;
50858;SDS011;36826;47.514;19.056;2023-05-24T11:08:23;4.78;;;3.17;;
50858;SDS011;36826;47.514;19.056;2023-05-24T11:11:10;5.82;;;3.05;;
50858;SDS011;36826;47.514;19.056;2023-05-24T11:13:37;3.85;;;3.10;;
50858;SDS011;36826;47.514;19.056;2023-05-24T11:16:04;3.85;;;3.22;;
50858;SDS011;36826;47.514;19.056;2023-05-24T11:18:30;6.00;;;3.22;;
50858;SDS011;36826;47.514;19.056;2023-05-24T11:21:02;4.18;;;3.17;;
50858;SDS011;36826;47.514;19.056;2023-05-24T11:23:30;4.90;;;3.25;;
50858;SDS011;36826;47.514;19.056;2023-05-24T11:25:56;3.80;;;3.20;;
50858;SDS011;36826;47.514;19.056;2023-05-24T11:28:21;3.90;;;3.08;;
50858;SDS011;36826;47.514;19.056;2023-05-24T11:30:47;3.80;;;3.08;;
50858;SDS011;36826;47.514;19.056;2023-05-24T11:33:20;5.28;;;3.33;;
50858;SDS011;36826;47.514;19.056;2023-05-24T11:35:50;3.72;;;3.42;;
50858;SDS011;36826;47.514;19.056;2023-05-24T11:38:18;4.32;;;3.42;;
50858;SDS011;36826;47.514;19.056;2023-05-24T11:40:46;3.20;;;2.85;;
50858;SDS011;36826;47.514;19.056;2023-05-24T11:43:19;6.30;;;3.45;;
50858;SDS011;36826;47.514;19.056;2023-05-24T11:45:47;5.80;;;3.35;;
50858;SDS011;36826;47.514;19.056;2023-05-24T11:50:40;3.40;;;3.10;;
50858;SDS011;36826;47.514;19.056;2023-05-24T11:53:14;3.88;;;3.28;;
50858;SDS011;36826;47.514;19.056;2023-05-24T11:55:40;3.85;;;3.33;;
50858;SDS011;36826;47.514;19.056;2023-05-24T11:58:13;4.28;;;3.30;;
50858;SDS011;36826;47.514;19.056;2023-05-24T12:00:46;5.38;;;3.40;;
50858;SDS011;36826;47.514;19.056;2023-05-24T12:03:11;4.15;;;3.15;;
50858;SDS011;36826;47.514;19.056;2023-05-24T12:05:37;4.18;;;2.80;;
50858;SDS011;36826;47.514;19.056;2023-05-24T12:10:30;3.83;;;3.05;;
50858;SDS011;36826;47.514;19.056;2023-05-24T12:13:00;3.47;;;2.83;;
50858;SDS011;36826;47.514;19.056;2023-05-24T12:15:27;3.65;;;2.78;;
50858;SDS011;36826;47.514;19.056;2023-05-24T12:17:55;3.85;;;2.70;;
50858;SDS011;36826;47.514;19.056;2023-05-24T12:20:21;4.03;;;2.90;;
50858;SDS011;36826;47.514;19.056;2023-05-24T12:22:48;3.88;;;3.10;;
50858;SDS011;36826;47.514;19.056;2023-05-24T12:25:18;4.85;;;2.88;;
50858;SDS011;36826;47.514;19.056;2023-05-24T12:27:55;3.22;;;2.60;;
50858;SDS011;36826;47.514;19.056;2023-05-24T12:30:24;4.60;;;2.83;;
50858;SDS011;36826;47.514;19.056;2023-05-24T12:32:51;4.32;;;2.70;;
50858;SDS011;36826;47.514;19.056;2023-05-24T12:35:20;3.10;;;2.80;;
50858;SDS011;36826;47.514;19.056;2023-05-24T12:37:46;5.78;;;3.00;;
50858;SDS011;36826;47.514;19.056;2023-05-24T12:42:54;3.47;;;2.47;;
50858;SDS011;36826;47.514;19.056;2023-05-24T12:45:24;3.65;;;2.70;;
50858;SDS011;36826;47.514;19.056;2023-05-24T12:47:55;3.10;;;2.80;;
50858;SDS011;36826;47.514;19.056;2023-05-24T12:50:23;3.55;;;2.80;;
50858;SDS011;36826;47.514;19.056;2023-05-24T12:52:50;5.13;;;2.75;;
50858;SDS011;36826;47.514;19.056;2023-05-24T12:55:26;3.55;;;2.33;;
50858;SDS011;36826;47.514;19.056;2023-05-24T12:57:52;4.68;;;2.55;;
50858;SDS011;36826;47.514;19.056;2023-05-24T13:00:27;3.03;;;2.72;;
50858;SDS011;36826;47.514;19.056;2023-05-24T13:02:54;3.88;;;2.67;;
50858;SDS011;36826;47.514;19.056;2023-05-24T13:05:22;3.03;;;2.42;;
50858;SDS011;36826;47.514;19.056;2023-05-24T13:07:49;3.97;;;2.88;;
50858;SDS011;36826;47.514;19.056;2023-05-24T13:10:15;4.03;;;2.75;;
50858;SDS011;36826;47.514;19.056;2023-05-24T13:12:41;3.83;;;2.47;;
50858;SDS011;36826;47.514;19.056;2023-05-24T13:15:07;3.25;;;2.28;;
50858;SDS011;36826;47.514;19.056;2023-05-24T13:17:34;3.15;;;2.50;;
50858;SDS011;36826;47.514;19.056;2023-05-24T13:20:00;3.42;;;2.67;;
50858;SDS011;36826;47.514;19.056;2023-05-24T13:22:29;3.28;;;2.53;;
50858;SDS011;36826;47.514;19.056;2023-05-24T13:24:54;4.45;;;2.65;;
50858;SDS011;36826;47.514;19.056;2023-05-24T13:27:20;4.00;;;2.35;;
50858;SDS011;36826;47.514;19.056;2023-05-24T13:29:46;3.08;;;2.30;;
50858;SDS011;36826;47.514;19.056;2023-05-24T13:32:11;2.90;;;2.38;;
50858;SDS011;36826;47.514;19.056;2023-05-24T13:34:37;3.75;;;2.50;;
50858;SDS011;36826;47.514;19.056;2023-05-24T13:37:02;2.70;;;2.50;;
50858;SDS011;36826;47.514;19.056;2023-05-24T13:39:27;5.70;;;2.80;;
50858;SDS011;36826;47.514;19.056;2023-05-24T13:41:53;2.60;;;2.40;;
50858;SDS011;36826;47.514;19.056;2023-05-24T13:44:18;3.33;;;2.55;;
50858;SDS011;36826;47.514;19.056;2023-05-24T13:46:44;2.60;;;2.20;;
50858;SDS011;36826;47.514;19.056;2023-05-24T13:49:09;3.15;;;2.38;;
50858;SDS011;36826;47.514;19.056;2023-05-24T13:51:37;3.60;;;2.45;;
50858;SDS011;36826;47.514;19.056;2023-05-24T13:54:03;3.08;;;2.15;;
50858;SDS011;36826;47.514;19.056;2023-05-24T13:56:31;5.50;;;2.47;;
50858;SDS011;36826;47.514;19.056;2023-05-24T13:58:58;2.67;;;2.47;;
50858;SDS011;36826;47.514;19.056;2023-05-24T14:01:25;2.90;;;2.33;;
50858;SDS011;36826;47.514;19.056;2023-05-24T14:03:50;3.47;;;2.38;;
50858;SDS011;36826;47.514;19.056;2023-05-24T14:06:16;3.75;;;2.30;;
50858;SDS011;36826;47.514;19.056;2023-05-24T14:08:43;3.42;;;2.45;;
50858;SDS011;36826;47.514;19.056;2023-05-24T14:11:09;2.78;;;2.22;;
50858;SDS011;36826;47.514;19.056;2023-05-24T14:13:37;2.90;;;2.55;;
50858;SDS011;36826;47.514;19.056;2023-05-24T14:16:02;5.53;;;2.80;;
50858;SDS011;36826;47.514;19.056;2023-05-24T14:18:28;4.50;;;2.70;;
50858;SDS011;36826;47.514;19.056;2023-05-24T14:20:54;4.72;;;2.50;;
50858;SDS011;36826;47.514;19.056;2023-05-24T14:23:19;3.85;;;2.55;;
50858;SDS011;36826;47.514;19.056;2023-05-24T14:25:45;3.35;;;2.50;;
50858;SDS011;36826;47.514;19.056;2023-05-24T14:28:11;3.38;;;2.47;;
50858;SDS011;36826;47.514;19.056;2023-05-24T14:30:36;4.25;;;2.50;;
50858;SDS011;36826;47.514;19.056;2023-05-24T14:33:02;5.03;;;2.70;;
50858;SDS011;36826;47.514;19.056;2023-05-24T14:38:02;3.30;;;2.38;;
50858;SDS011;36826;47.514;19.056;2023-05-24T14:40:28;4.25;;;2.45;;
50858;SDS011;36826;47.514;19.056;2023-05-24T14:42:54;5.13;;;2.40;;
50858;SDS011;36826;47.514;19.056;2023-05-24T14:45:19;3.47;;;2.50;;
50858;SDS011;36826;47.514;19.056;2023-05-24T14:47:45;5.00;;;2.30;;
50858;SDS011;36826;47.514;19.056;2023-05-24T14:50:10;2.80;;;2.53;;
50858;SDS011;36826;47.514;19.056;2023-05-24T14:52:36;2.72;;;2.38;;
50858;SDS011;36826;47.514;19.056;2023-05-24T14:55:02;2.95;;;2.35;;
50858;SDS011;36826;47.514;19.056;2023-05-24T14:57:28;3.10;;;2.20;;
50858;SDS011;36826;47.514;19.056;2023-05-24T14:59:53;2.90;;;2.38;;
50858;SDS011;36826;47.514;19.056;2023-05-24T15:02:19;2.42;;;2.22;;
50858;SDS011;36826;47.514;19.056;2023-05-24T15:04:45;3.55;;;2.30;;
50858;SDS011;36826;47.514;19.056;2023-05-24T15:07:13;3.17;;;2.28;;
50858;SDS011;36826;47.514;19.056;2023-05-24T15:09:38;2.53;;;2.22;;
50858;SDS011;36826;47.514;19.056;2023-05-24T15:12:04;3.83;;;2.40;;
50858;SDS011;36826;47.514;19.056;2023-05-24T15:14:29;3.53;;;3.10;;
50858;SDS011;36826;47.514;19.056;2023-05-24T15:16:55;2.88;;;2.28;;
50858;SDS011;36826;47.514;19.056;2023-05-24T15:19:20;2.95;;;2.42;;